Time;durP1;ratioP1;P1;durP2;ratioP2;P2;SDS_P1;SDS_P2;PMS_P1;PMS_P2;Temp;Humidity;BMP_temperature;BMP_pressure;BME280_temperature;BME280_humidity;BME280_pressure;Samples;Min_cycle;Max_cycle;Signal;HPM_P1;HPM_P2
2022/07/03 00:01:24;;;;;;;6.07;4.70;;;18.20;95.70;;;;;;4988838;28;21153;-82
2022/07/03 00:03:51;;;;;;;7.40;5.20;;;18.20;95.70;;;;;;4980306;28;20418;-83
2022/07/03 00:06:16;;;;;;;5.53;4.30;;;18.10;95.90;;;;;;5007517;28;20416;-82
2022/07/03 00:08:42;;;;;;;6.07;4.67;;;18.10;96.00;;;;;;5004311;28;20448;-83
2022/07/03 00:11:09;;;;;;;5.60;4.33;;;18.10;96.00;;;;;;4990931;28;20695;-82
2022/07/03 00:13:34;;;;;;;5.00;4.63;;;18.10;95.90;;;;;;4992252;28;20429;-82
2022/07/03 00:16:00;;;;;;;5.90;5.20;;;18.10;96.20;;;;;;5011431;28;20426;-83
2022/07/03 00:18:25;;;;;;;5.63;4.70;;;18.10;96.20;;;;;;5011500;28;20214;-82
2022/07/03 00:21:08;;;;;;;6.83;4.83;;;18.00;96.40;;;;;;4990457;28;20185;-82
2022/07/03 00:23:45;;;;;;;5.63;4.77;;;18.00;96.40;;;;;;4992318;28;20181;-82
2022/07/03 00:26:13;;;;;;;6.77;5.17;;;18.00;96.50;;;;;;4978249;28;20477;-82
2022/07/03 00:28:41;;;;;;;5.43;4.83;;;17.90;96.80;;;;;;4992416;28;20468;-82
2022/07/03 00:31:07;;;;;;;7.60;5.17;;;17.90;96.80;;;;;;4990764;28;20423;-82
2022/07/03 00:33:34;;;;;;;6.30;4.67;;;17.80;96.90;;;;;;4991857;28;20416;-83
2022/07/03 00:36:00;;;;;;;5.30;4.83;;;17.80;97.00;;;;;;4990612;28;20439;-82
2022/07/03 00:38:26;;;;;;;5.30;4.43;;;17.80;97.00;;;;;;4990798;28;20433;-82
2022/07/03 00:40:52;;;;;;;6.10;5.50;;;17.70;97.10;;;;;;4990177;28;20368;-82
2022/07/03 00:43:18;;;;;;;6.60;4.47;;;17.70;97.10;;;;;;4990341;28;20421;-82
2022/07/03 00:45:49;;;;;;;8.20;5.37;;;17.70;97.10;;;;;;4993258;28;20259;-82
2022/07/03 00:48:17;;;;;;;5.30;4.53;;;17.60;97.10;;;;;;4990254;28;20209;-82
2022/07/03 00:50:46;;;;;;;5.43;4.67;;;17.60;96.90;;;;;;4993369;28;20691;-82
2022/07/03 00:53:13;;;;;;;4.80;4.50;;;17.60;97.00;;;;;;4985793;28;20421;-82
2022/07/03 00:55:41;;;;;;;7.33;5.30;;;17.50;97.00;;;;;;5008754;28;20423;-82
2022/07/03 00:58:07;;;;;;;8.93;4.80;;;17.50;97.00;;;;;;4991864;28;20541;-82
2022/07/03 01:00:40;;;;;;;4.93;4.60;;;17.50;96.80;;;;;;4991780;28;20508;-82
2022/07/03 01:03:14;;;;;;;8.70;4.70;;;17.50;96.70;;;;;;4989866;28;20433;-82
2022/07/03 01:05:43;;;;;;;7.23;5.07;;;17.40;96.60;;;;;;4992251;28;20421;-82
2022/07/03 01:08:15;;;;;;;9.17;5.00;;;17.40;97.10;;;;;;4989710;28;20464;-82
2022/07/03 01:10:54;;;;;;;7.80;5.00;;;17.40;96.80;;;;;;4992790;28;20789;-82
2022/07/03 01:13:39;;;;;;;4.77;4.50;;;17.30;97.10;;;;;;4990098;28;20417;-82
2022/07/03 01:16:12;;;;;;;6.80;5.57;;;17.30;97.00;;;;;;4995798;28;20459;-82
2022/07/03 01:18:58;;;;;;;5.20;4.90;;;17.30;97.10;;;;;;4992306;28;20495;-82
2022/07/03 01:21:48;;;;;;;5.97;5.03;;;17.30;97.20;;;;;;4990296;28;20867;-82
2022/07/03 01:24:41;;;;;;;7.13;4.60;;;17.20;97.30;;;;;;4991748;28;20416;-81
2022/07/03 01:27:12;;;;;;;5.73;4.83;;;17.20;97.30;;;;;;4993049;28;20428;-82
2022/07/03 01:29:51;;;;;;;5.10;4.50;;;17.20;97.30;;;;;;4992708;28;20431;-81
2022/07/03 01:32:20;;;;;;;7.67;5.30;;;17.20;97.30;;;;;;4976938;28;20419;-82
2022/07/03 01:34:52;;;;;;;5.57;5.03;;;17.20;97.30;;;;;;5000014;28;21004;-82
2022/07/03 01:37:21;;;;;;;5.80;5.33;;;17.20;97.30;;;;;;4989852;28;20496;-82
2022/07/03 01:39:51;;;;;;;7.13;5.50;;;17.10;97.30;;;;;;4985198;28;20503;-82
2022/07/03 01:42:18;;;;;;;6.50;4.70;;;17.10;97.30;;;;;;4992646;28;20554;-81
2022/07/03 01:44:47;;;;;;;5.13;4.47;;;17.10;97.30;;;;;;4992885;28;20412;-82
2022/07/03 01:47:14;;;;;;;5.60;4.83;;;17.10;97.30;;;;;;4989217;28;20437;-82
2022/07/03 01:49:41;;;;;;;5.60;4.90;;;17.00;97.30;;;;;;4992116;28;20413;-82
2022/07/03 01:52:08;;;;;;;10.30;6.30;;;17.00;97.30;;;;;;4989482;28;20424;-82
2022/07/03 01:54:36;;;;;;;6.97;4.80;;;17.00;97.30;;;;;;4991053;28;20428;-82
2022/07/03 01:57:05;;;;;;;16.13;5.30;;;17.00;97.30;;;;;;4989572;28;20978;-82
2022/07/03 01:59:31;;;;;;;6.33;4.90;;;17.00;97.30;;;;;;4990809;28;20931;-82
2022/07/03 02:02:24;;;;;;;6.50;4.37;;;17.00;97.30;;;;;;4989894;28;20477;-82
2022/07/03 02:05:21;;;;;;;9.50;5.10;;;17.00;97.30;;;;;;4983908;28;20422;-83
2022/07/03 02:07:52;;;;;;;5.20;4.20;;;17.00;97.30;;;;;;5003209;28;20448;-82
2022/07/03 02:10:27;;;;;;;5.10;4.40;;;16.90;97.30;;;;;;4994067;28;20999;-82
2022/07/03 02:13:02;;;;;;;5.90;4.87;;;16.90;97.30;;;;;;4982933;28;20435;-82
2022/07/03 02:15:33;;;;;;;5.77;5.10;;;16.90;97.30;;;;;;5015276;28;20980;-85
2022/07/03 02:18:30;;;;;;;5.20;4.50;;;16.90;97.30;;;;;;4995382;28;20822;-85
2022/07/03 02:21:04;;;;;;;7.60;5.10;;;16.90;97.30;;;;;;4991113;28;20425;-85
2022/07/03 02:23:35;;;;;;;7.70;5.30;;;16.80;97.30;;;;;;4989153;28;20460;-85
2022/07/03 02:26:05;;;;;;;4.80;4.50;;;16.80;97.30;;;;;;4993388;28;20421;-85
2022/07/03 02:28:50;;;;;;;6.70;5.17;;;16.80;97.30;;;;;;4993940;28;20982;-85
2022/07/03 02:31:18;;;;;;;8.20;6.27;;;16.70;97.30;;;;;;4993107;28;20433;-85
2022/07/03 02:33:46;;;;;;;5.80;5.10;;;16.70;97.30;;;;;;4995870;28;20965;-85
2022/07/03 02:36:17;;;;;;;7.00;5.57;;;16.70;97.30;;;;;;4992683;28;20453;-85
2022/07/03 02:38:44;;;;;;;6.03;4.97;;;16.70;97.30;;;;;;4983313;28;20510;-85
2022/07/03 02:41:17;;;;;;;7.20;5.20;;;16.60;97.30;;;;;;4991517;28;20463;-85
2022/07/03 02:43:49;;;;;;;6.17;4.70;;;16.60;97.30;;;;;;4984792;28;20417;-85
2022/07/03 02:46:49;;;;;;;6.30;5.30;;;16.60;97.30;;;;;;4991966;28;20409;-85
2022/07/03 02:49:23;;;;;;;7.33;5.10;;;16.60;97.30;;;;;;4995548;28;20424;-85
2022/07/03 02:51:58;;;;;;;6.53;5.00;;;16.60;97.30;;;;;;4996019;28;20474;-84
2022/07/03 02:54:24;;;;;;;6.00;5.30;;;16.60;97.30;;;;;;4995942;28;20489;-86
2022/07/03 02:57:03;;;;;;;6.97;5.60;;;16.60;97.30;;;;;;4991499;28;20522;-85
2022/07/03 02:59:42;;;;;;;5.17;4.90;;;16.50;97.30;;;;;;4993203;28;20417;-85
2022/07/03 03:02:19;;;;;;;8.33;5.80;;;16.40;97.30;;;;;;4992633;28;20503;-85
2022/07/03 03:04:57;;;;;;;7.47;5.00;;;16.40;97.30;;;;;;4995120;28;20449;-85
2022/07/03 03:07:34;;;;;;;8.43;5.13;;;16.30;97.30;;;;;;4997837;28;20450;-85
2022/07/03 03:10:00;;;;;;;5.77;5.50;;;16.30;97.30;;;;;;4992243;28;20487;-85
2022/07/03 03:12:37;;;;;;;7.20;5.40;;;16.20;97.30;;;;;;4993110;28;20460;-85
2022/07/03 03:15:06;;;;;;;6.83;5.30;;;16.10;97.30;;;;;;4992522;28;20647;-85
2022/07/03 03:17:43;;;;;;;8.40;5.70;;;16.00;97.30;;;;;;4993573;28;20484;-85
2022/07/03 03:20:18;;;;;;;8.33;5.40;;;16.00;97.30;;;;;;4992877;28;21009;-85
2022/07/03 03:23:09;;;;;;;13.23;5.50;;;16.00;97.30;;;;;;4994323;28;20466;-85
2022/07/03 03:25:36;;;;;;;6.97;5.73;;;15.90;97.30;;;;;;5000993;28;20417;-83
2022/07/03 03:28:02;;;;;;;8.03;5.07;;;15.90;97.30;;;;;;4979541;28;20433;-85
2022/07/03 03:30:28;;;;;;;7.40;6.23;;;15.90;97.30;;;;;;4992643;28;20413;-84
2022/07/03 03:32:53;;;;;;;7.33;5.70;;;15.90;97.30;;;;;;4992025;28;20710;-84
2022/07/03 03:35:19;;;;;;;9.37;5.57;;;15.80;97.30;;;;;;4991512;28;20413;-85
2022/07/03 03:37:48;;;;;;;7.07;5.40;;;15.80;97.30;;;;;;4994022;28;20255;-84
2022/07/03 03:40:15;;;;;;;8.30;5.60;;;15.80;97.30;;;;;;4991173;28;20200;-85
2022/07/03 03:42:40;;;;;;;5.57;5.30;;;15.80;97.30;;;;;;5006415;28;20464;-82
2022/07/03 03:45:06;;;;;;;7.77;5.30;;;15.80;97.30;;;;;;4990807;28;20475;-82
2022/07/03 03:47:32;;;;;;;7.37;5.23;;;15.80;97.30;;;;;;4992690;28;20714;-82
2022/07/03 03:49:59;;;;;;;6.50;5.83;;;15.90;97.30;;;;;;4990989;28;20472;-83
2022/07/03 03:52:25;;;;;;;8.53;5.67;;;15.90;97.30;;;;;;4991677;28;20908;-83
2022/07/03 03:54:51;;;;;;;5.90;5.30;;;15.90;97.30;;;;;;4990191;28;20436;-82
2022/07/03 03:57:20;;;;;;;6.30;4.93;;;15.90;97.30;;;;;;4990419;28;20445;-82
2022/07/03 03:59:46;;;;;;;5.33;5.00;;;15.90;97.30;;;;;;4988052;28;20189;-82
2022/07/03 04:02:13;;;;;;;6.50;5.40;;;15.90;97.30;;;;;;4990868;28;20873;-82
2022/07/03 04:04:38;;;;;;;11.20;5.60;;;15.90;97.30;;;;;;4993143;28;20825;-82
2022/07/03 04:07:04;;;;;;;8.77;6.27;;;15.90;97.30;;;;;;5011458;28;20582;-82
2022/07/03 04:09:30;;;;;;;7.10;5.50;;;16.00;97.30;;;;;;4992061;28;20780;-82
2022/07/03 04:11:56;;;;;;;8.60;5.83;;;16.00;97.30;;;;;;4991140;28;20660;-82
2022/07/03 04:14:23;;;;;;;7.10;5.70;;;16.00;97.30;;;;;;5008957;28;20655;-81
2022/07/03 04:16:49;;;;;;;9.43;5.20;;;16.00;97.30;;;;;;4990309;28;20935;-82
2022/07/03 04:19:14;;;;;;;8.77;5.77;;;16.00;97.30;;;;;;4990637;28;20427;-82
2022/07/03 04:21:40;;;;;;;6.50;5.50;;;16.10;97.30;;;;;;4992914;28;20201;-82
2022/07/03 04:24:06;;;;;;;7.17;5.63;;;16.10;97.30;;;;;;4990870;28;20550;-82
2022/07/03 04:26:31;;;;;;;7.47;5.60;;;16.10;97.30;;;;;;4990064;28;20194;-82
2022/07/03 04:28:57;;;;;;;6.27;5.57;;;16.10;97.30;;;;;;4987245;28;20425;-81
2022/07/03 04:31:23;;;;;;;8.33;5.43;;;16.10;97.30;;;;;;4993694;28;20693;-82
2022/07/03 04:33:48;;;;;;;7.30;5.33;;;16.20;97.30;;;;;;4989228;28;20190;-82
2022/07/03 04:36:15;;;;;;;6.20;5.37;;;16.20;97.30;;;;;;4990390;28;20182;-82
2022/07/03 04:38:41;;;;;;;5.90;5.60;;;16.20;97.30;;;;;;4992819;28;20210;-82
2022/07/03 04:41:06;;;;;;;8.00;5.57;;;16.20;97.30;;;;;;4989921;28;20797;-82
2022/07/03 04:43:32;;;;;;;6.73;5.60;;;16.20;97.30;;;;;;4991188;28;20182;-82
2022/07/03 04:45:57;;;;;;;9.67;5.40;;;16.30;97.30;;;;;;4990105;28;20182;-82
2022/07/03 04:48:24;;;;;;;7.10;5.07;;;16.30;97.30;;;;;;4990378;28;20212;-82
2022/07/03 04:50:49;;;;;;;5.80;5.57;;;16.30;97.30;;;;;;4989691;28;20192;-82
2022/07/03 04:53:15;;;;;;;7.20;4.93;;;16.30;97.30;;;;;;4990102;28;20511;-81
2022/07/03 04:55:40;;;;;;;7.43;6.10;;;16.40;97.30;;;;;;4992268;28;20189;-83
2022/07/03 04:58:06;;;;;;;5.13;4.60;;;16.40;97.30;;;;;;4989907;28;20746;-80
2022/07/03 05:00:32;;;;;;;7.90;5.67;;;16.40;97.30;;;;;;4991411;28;20589;-82
2022/07/03 05:02:57;;;;;;;7.90;5.10;;;16.50;97.30;;;;;;4990161;28;20213;-82
2022/07/03 05:05:23;;;;;;;6.83;5.00;;;16.50;97.30;;;;;;4990236;28;20206;-82
2022/07/03 05:07:49;;;;;;;11.07;5.77;;;16.60;97.30;;;;;;4990050;28;20201;-82
2022/07/03 05:10:14;;;;;;;7.60;5.30;;;16.60;97.30;;;;;;4990720;28;20420;-82
2022/07/03 05:12:40;;;;;;;8.23;5.00;;;16.70;97.30;;;;;;4991965;28;20181;-82
2022/07/03 05:15:06;;;;;;;6.93;4.80;;;16.70;97.30;;;;;;4990172;28;20577;-82
2022/07/03 05:17:33;;;;;;;5.83;5.60;;;16.70;97.30;;;;;;4991308;28;20218;-82
2022/07/03 05:22:43;;;;;;;8.60;5.50;;;16.80;97.30;;;;;;5009848;28;20558;-82
2022/07/03 05:25:08;;;;;;;9.07;5.73;;;16.90;97.30;;;;;;4990042;28;20864;-82
2022/07/03 05:27:37;;;;;;;6.90;4.50;;;16.90;97.30;;;;;;4991539;28;20788;-82
2022/07/03 05:30:07;;;;;;;5.43;4.40;;;17.00;97.30;;;;;;5011248;28;20248;-83
2022/07/03 05:32:35;;;;;;;6.23;5.00;;;17.10;97.30;;;;;;4988851;28;20429;-81
2022/07/03 05:35:00;;;;;;;6.70;5.00;;;17.10;97.30;;;;;;4995943;28;20440;-82
2022/07/03 05:37:26;;;;;;;5.83;5.20;;;17.20;97.30;;;;;;4990816;28;20436;-81
2022/07/03 05:39:52;;;;;;;5.80;4.87;;;17.20;97.30;;;;;;4980841;28;20186;-82
2022/07/03 05:42:18;;;;;;;8.13;5.50;;;17.30;97.30;;;;;;4983615;28;20742;-81
2022/07/03 05:44:45;;;;;;;5.37;5.00;;;17.40;97.30;;;;;;4984159;28;20499;-82
2022/07/03 05:47:10;;;;;;;7.00;4.77;;;17.40;97.30;;;;;;4993355;28;20301;-82
2022/07/03 05:49:36;;;;;;;6.87;5.00;;;17.50;97.30;;;;;;4995910;28;20981;-83
2022/07/03 05:52:02;;;;;;;5.20;4.60;;;17.60;97.30;;;;;;4993981;28;20235;-83
2022/07/03 05:54:28;;;;;;;5.33;4.97;;;17.60;97.30;;;;;;4994328;28;20186;-82
2022/07/03 05:56:54;;;;;;;4.73;4.40;;;17.70;97.30;;;;;;4993653;28;20676;-80
2022/07/03 05:59:19;;;;;;;5.63;4.80;;;17.70;97.30;;;;;;4993949;28;20427;-81
2022/07/03 06:01:45;;;;;;;5.20;4.63;;;17.80;97.30;;;;;;5013589;28;20759;-83
2022/07/03 06:04:10;;;;;;;6.50;4.50;;;17.90;97.30;;;;;;4993885;28;20217;-82
2022/07/03 06:06:36;;;;;;;5.23;4.10;;;18.00;97.30;;;;;;4994972;28;20198;-82
2022/07/03 06:09:02;;;;;;;5.53;4.50;;;18.10;97.30;;;;;;4993463;28;20186;-82
2022/07/03 06:11:28;;;;;;;5.20;4.63;;;18.10;97.30;;;;;;4993639;28;20192;-82
2022/07/03 06:13:53;;;;;;;5.27;4.40;;;18.30;97.30;;;;;;4992983;28;20256;-82
2022/07/03 06:16:19;;;;;;;6.07;4.67;;;18.30;97.30;;;;;;4992092;28;20233;-81
2022/07/03 06:18:44;;;;;;;5.10;4.70;;;18.40;97.30;;;;;;4996420;28;20201;-82
2022/07/03 06:21:10;;;;;;;6.07;4.33;;;18.50;97.30;;;;;;4992697;28;20566;-82
2022/07/03 06:23:36;;;;;;;5.67;4.43;;;18.60;97.30;;;;;;4994744;28;20186;-83
2022/07/03 06:26:01;;;;;;;4.57;3.97;;;18.70;97.30;;;;;;4990548;28;20181;-81
2022/07/03 06:28:27;;;;;;;4.10;3.80;;;18.80;97.30;;;;;;4983742;28;20257;-82
2022/07/03 06:30:56;;;;;;;5.70;4.23;;;18.90;97.30;;;;;;4990799;28;20582;-82
2022/07/03 06:33:22;;;;;;;5.90;4.03;;;19.00;96.50;;;;;;5001347;28;20215;-82
2022/07/03 06:35:48;;;;;;;5.23;4.03;;;19.10;95.80;;;;;;4992818;28;20449;-82
2022/07/03 06:38:15;;;;;;;5.53;4.40;;;19.30;95.50;;;;;;5009746;28;20443;-81
2022/07/03 06:40:40;;;;;;;6.23;4.37;;;19.40;95.30;;;;;;4995567;28;20464;-82
2022/07/03 06:43:06;;;;;;;4.40;3.90;;;19.50;94.80;;;;;;4992486;28;20509;-80
2022/07/03 06:45:32;;;;;;;5.03;4.13;;;19.60;94.90;;;;;;4994497;28;20182;-81
2022/07/03 06:47:57;;;;;;;7.60;4.10;;;19.70;94.40;;;;;;4992965;28;20617;-81
2022/07/03 06:50:26;;;;;;;5.73;4.10;;;19.80;94.60;;;;;;4993169;28;20170;-82
2022/07/03 06:52:52;;;;;;;4.70;4.00;;;19.90;94.20;;;;;;4992829;28;20189;-81
2022/07/03 06:55:18;;;;;;;4.53;4.20;;;20.00;94.50;;;;;;4993190;28;20986;-81
2022/07/03 06:57:44;;;;;;;5.83;4.07;;;20.10;94.10;;;;;;5012032;28;20223;-82
2022/07/03 07:00:10;;;;;;;4.03;3.70;;;20.20;93.90;;;;;;4980501;28;20253;-81
2022/07/03 07:02:36;;;;;;;6.93;3.87;;;20.30;94.10;;;;;;4995104;28;20998;-81
2022/07/03 07:05:03;;;;;;;4.73;3.93;;;20.40;93.00;;;;;;4992600;28;20479;-82
2022/07/03 07:07:28;;;;;;;4.60;4.00;;;20.60;93.40;;;;;;4993083;28;20667;-82
2022/07/03 07:09:57;;;;;;;4.40;3.70;;;20.70;93.00;;;;;;5012456;28;20499;-81
2022/07/03 07:12:25;;;;;;;4.67;3.60;;;20.80;92.90;;;;;;4992336;28;20197;-82
2022/07/03 07:14:51;;;;;;;4.03;3.50;;;20.90;92.00;;;;;;4992105;28;20487;-81
2022/07/03 07:17:16;;;;;;;3.97;3.37;;;21.00;91.50;;;;;;4991977;28;20448;-81
2022/07/03 07:19:42;;;;;;;13.73;3.67;;;21.10;91.50;;;;;;4996529;28;20618;-81
2022/07/03 07:22:08;;;;;;;3.73;3.20;;;21.20;89.10;;;;;;4993448;28;20209;-81
2022/07/03 07:24:33;;;;;;;4.87;3.93;;;21.30;89.40;;;;;;4994587;28;20429;-81
2022/07/03 07:26:59;;;;;;;4.83;3.67;;;21.40;89.70;;;;;;4991792;28;20205;-81
2022/07/03 07:29:25;;;;;;;4.40;3.47;;;21.50;89.90;;;;;;4992009;28;20745;-80
2022/07/03 07:31:50;;;;;;;6.10;3.60;;;21.60;90.40;;;;;;4991893;28;20182;-81
2022/07/03 07:34:16;;;;;;;3.93;3.40;;;21.70;90.00;;;;;;4991419;28;20182;-81
2022/07/03 07:36:41;;;;;;;4.17;3.50;;;21.90;90.50;;;;;;4994037;28;20182;-81
2022/07/03 07:39:07;;;;;;;4.03;3.53;;;21.90;89.80;;;;;;4992010;28;20181;-81
2022/07/03 07:41:33;;;;;;;4.43;3.57;;;22.00;89.00;;;;;;4993640;28;20232;-81
2022/07/03 07:43:58;;;;;;;3.93;3.50;;;22.10;89.00;;;;;;4991657;28;20629;-81
2022/07/03 07:46:24;;;;;;;5.90;4.03;;;22.20;89.20;;;;;;4981917;28;20185;-80
2022/07/03 07:48:50;;;;;;;3.13;3.00;;;22.30;88.80;;;;;;5006664;28;20284;-81
2022/07/03 07:51:16;;;;;;;3.97;3.40;;;22.40;87.70;;;;;;5008540;28;20228;-81
2022/07/03 07:53:41;;;;;;;5.93;3.60;;;22.50;89.10;;;;;;4993395;28;20249;-81
2022/07/03 07:56:07;;;;;;;5.10;3.70;;;22.60;88.90;;;;;;4990361;28;20422;-81
2022/07/03 07:58:32;;;;;;;6.73;3.53;;;22.80;87.80;;;;;;4994587;28;20682;-83
2022/07/03 08:06:26;;;;;;;3.20;2.80;;;23.10;87.10;;;;;;5013907;28;20419;-83
2022/07/03 08:08:51;;;;;;;5.30;3.00;;;23.20;87.00;;;;;;4992978;28;20433;-83
2022/07/03 08:11:17;;;;;;;9.33;3.60;;;23.30;87.10;;;;;;4993739;28;20185;-83
2022/07/03 08:13:45;;;;;;;3.57;3.03;;;23.40;86.40;;;;;;4996421;28;20203;-82
2022/07/03 08:16:11;;;;;;;3.70;3.47;;;23.40;86.00;;;;;;4994130;28;20202;-83
2022/07/03 08:18:37;;;;;;;4.03;3.23;;;23.50;85.90;;;;;;4993920;28;20437;-83
2022/07/03 08:21:02;;;;;;;4.03;3.20;;;23.50;87.20;;;;;;4993644;28;20495;-83
2022/07/03 08:23:28;;;;;;;3.97;2.97;;;23.60;85.40;;;;;;5010930;28;20178;-85
2022/07/03 08:25:54;;;;;;;3.20;3.00;;;23.70;87.00;;;;;;4995593;28;20213;-83
2022/07/03 08:28:19;;;;;;;7.43;3.60;;;23.80;86.60;;;;;;4993387;28;20205;-82
2022/07/03 08:30:45;;;;;;;4.10;3.30;;;24.00;85.90;;;;;;4996037;28;20185;-84
2022/07/03 08:33:11;;;;;;;3.90;3.07;;;24.10;85.50;;;;;;4992947;28;20259;-85
2022/07/03 08:35:36;;;;;;;3.80;3.10;;;24.20;84.70;;;;;;4993177;28;20421;-83
2022/07/03 08:38:02;;;;;;;2.90;2.70;;;24.30;85.70;;;;;;4991141;28;20216;-83
2022/07/03 08:40:27;;;;;;;3.47;2.73;;;24.40;84.90;;;;;;5002391;28;20721;-83
2022/07/03 08:42:55;;;;;;;5.13;2.70;;;24.50;84.50;;;;;;4992050;28;20206;-83
2022/07/03 08:45:22;;;;;;;5.83;3.30;;;24.60;84.60;;;;;;4991560;28;20264;-83
2022/07/03 08:47:49;;;;;;;4.63;3.03;;;24.60;84.00;;;;;;4991161;28;20437;-83
2022/07/03 08:50:17;;;;;;;2.90;2.67;;;24.70;84.20;;;;;;4991819;28;20433;-82
2022/07/03 08:52:44;;;;;;;2.67;2.40;;;24.80;84.10;;;;;;4996009;28;20424;-85
2022/07/03 08:55:11;;;;;;;3.47;2.60;;;24.90;82.50;;;;;;4992721;28;20421;-82
2022/07/03 08:57:37;;;;;;;3.50;2.80;;;25.10;81.60;;;;;;4993426;28;20471;-85
2022/07/03 09:00:06;;;;;;;4.20;2.90;;;25.20;81.90;;;;;;4991370;28;20440;-84
2022/07/03 09:02:33;;;;;;;2.80;2.50;;;25.30;81.60;;;;;;4992587;28;20472;-84
2022/07/03 09:05:01;;;;;;;4.00;2.87;;;25.40;81.90;;;;;;4992015;28;20417;-83
2022/07/03 09:07:28;;;;;;;5.23;2.70;;;25.50;81.30;;;;;;4992031;28;20507;-85
2022/07/03 09:09:55;;;;;;;3.53;2.60;;;25.60;79.90;;;;;;5010924;28;20550;-84
2022/07/03 09:12:21;;;;;;;5.23;3.40;;;25.60;80.40;;;;;;4990754;28;20797;-84
2022/07/03 09:14:46;;;;;;;3.40;2.63;;;25.70;79.90;;;;;;4993935;28;20440;-83
2022/07/03 09:17:12;;;;;;;3.00;2.80;;;25.80;80.20;;;;;;4994469;28;20443;-85
2022/07/03 09:19:47;;;;;;;2.33;2.17;;;25.80;79.40;;;;;;4995926;28;20222;-86
2022/07/03 09:22:29;;;;;;;3.17;2.43;;;25.80;77.80;;;;;;4983488;28;20221;-83
2022/07/03 09:25:06;;;;;;;3.00;2.33;;;25.90;77.90;;;;;;4995361;28;20790;-88
2022/07/03 09:27:32;;;;;;;3.60;2.80;;;26.00;79.70;;;;;;4996177;28;20486;-83
2022/07/03 09:30:05;;;;;;;2.50;2.20;;;26.10;79.30;;;;;;4994378;28;20495;-83
2022/07/03 09:32:38;;;;;;;2.63;2.33;;;26.20;78.20;;;;;;4995850;28;20440;-84
2022/07/03 09:35:09;;;;;;;3.07;2.10;;;26.30;79.70;;;;;;4995952;28;20425;-82
2022/07/03 09:37:36;;;;;;;4.77;2.40;;;26.40;77.90;;;;;;4997889;28;20519;-84
2022/07/03 09:40:02;;;;;;;2.70;2.47;;;26.60;76.50;;;;;;4984713;28;20981;-84
2022/07/03 09:42:28;;;;;;;7.63;2.30;;;26.70;75.80;;;;;;4990123;28;20476;-82
2022/07/03 09:44:54;;;;;;;2.47;2.27;;;26.70;76.80;;;;;;4994257;28;20919;-85
2022/07/03 09:47:22;;;;;;;2.63;2.43;;;26.90;76.60;;;;;;5013894;28;20208;-83
2022/07/03 09:49:55;;;;;;;2.50;2.37;;;27.00;75.90;;;;;;4989293;28;20428;-85
2022/07/03 09:52:40;;;;;;;5.60;2.60;;;27.10;76.60;;;;;;4998535;28;20526;-84
2022/07/03 09:55:08;;;;;;;2.33;2.13;;;27.20;77.60;;;;;;4998142;28;20478;-87
2022/07/03 09:57:38;;;;;;;3.23;2.20;;;27.30;77.00;;;;;;4999018;28;20514;-83
2022/07/03 10:00:13;;;;;;;2.23;2.03;;;27.40;76.80;;;;;;4996221;28;20421;-83
2022/07/03 10:03:05;;;;;;;2.30;2.10;;;27.50;75.30;;;;;;4997575;28;20543;-83
2022/07/03 10:05:31;;;;;;;5.53;2.37;;;27.60;76.40;;;;;;4991393;28;20499;-85
2022/07/03 10:08:08;;;;;;;3.03;2.50;;;27.70;75.20;;;;;;4994841;28;21021;-84
2022/07/03 10:10:36;;;;;;;2.57;2.33;;;27.80;75.80;;;;;;4998000;28;20551;-83
2022/07/03 10:13:03;;;;;;;2.43;2.07;;;27.90;73.70;;;;;;4991538;28;20436;-84
2022/07/03 10:15:30;;;;;;;2.53;2.30;;;27.90;73.90;;;;;;4991483;28;20456;-85
2022/07/03 10:17:59;;;;;;;2.30;2.10;;;27.90;74.00;;;;;;5015564;28;20440;-82
2022/07/03 10:20:27;;;;;;;3.43;2.17;;;27.80;74.10;;;;;;4995318;28;20441;-83
2022/07/03 10:22:54;;;;;;;2.70;2.50;;;27.80;73.70;;;;;;4995022;28;20480;-83
2022/07/03 10:25:20;;;;;;;2.60;2.20;;;27.70;73.30;;;;;;4981284;28;20971;-83
2022/07/03 10:27:46;;;;;;;2.57;2.43;;;27.70;74.00;;;;;;5015112;28;20450;-84
2022/07/03 10:30:39;;;;;;;2.40;2.20;;;27.70;73.10;;;;;;4993545;28;20479;-85
2022/07/03 10:33:05;;;;;;;3.43;2.30;;;27.70;74.40;;;;;;4986333;28;20429;-84
2022/07/03 10:35:35;;;;;;;3.60;2.30;;;27.70;74.00;;;;;;4988048;28;20930;-84
2022/07/03 10:38:01;;;;;;;2.50;2.30;;;27.60;73.70;;;;;;4994930;28;20292;-83
2022/07/03 10:46:29;;;;;;;2.63;2.17;;;27.70;74.30;;;;;;5019157;28;20474;-83
2022/07/03 10:48:59;;;;;;;2.43;1.90;;;27.90;74.90;;;;;;4998129;28;20429;-82
2022/07/03 10:51:26;;;;;;;2.47;2.17;;;28.10;72.30;;;;;;4998685;28;20417;-83
2022/07/03 10:54:12;;;;;;;5.23;2.07;;;28.30;71.60;;;;;;4986088;28;20841;-83
2022/07/03 10:57:00;;;;;;;3.80;2.17;;;28.50;71.20;;;;;;4998490;28;20460;-80
2022/07/03 10:59:32;;;;;;;9.70;3.47;;;28.60;70.80;;;;;;5000840;28;20432;-82
2022/07/03 11:02:31;;;;;;;2.90;1.80;;;28.70;70.10;;;;;;4999673;28;21020;-82
2022/07/03 11:04:57;;;;;;;5.10;2.23;;;28.60;70.60;;;;;;4998759;28;20519;-83
2022/07/03 11:07:27;;;;;;;3.20;2.03;;;28.60;71.60;;;;;;4994593;28;20528;-82
2022/07/03 11:10:14;;;;;;;3.00;2.37;;;28.70;72.10;;;;;;4992195;28;20182;-81
2022/07/03 11:13:01;;;;;;;2.70;2.13;;;28.70;72.20;;;;;;4994778;28;20427;-80
2022/07/03 11:15:42;;;;;;;2.40;1.87;;;28.80;70.00;;;;;;5011097;28;20479;-82
2022/07/03 11:18:16;;;;;;;3.10;1.90;;;28.90;70.90;;;;;;4991718;28;20698;-81
2022/07/03 11:20:42;;;;;;;2.17;2.07;;;29.00;71.50;;;;;;4994078;28;20510;-81
2022/07/03 11:23:12;;;;;;;2.70;2.13;;;29.10;71.90;;;;;;4991505;28;20532;-81
2022/07/03 11:25:41;;;;;;;3.00;2.10;;;29.20;72.00;;;;;;4993759;28;20678;-81
2022/07/03 11:28:07;;;;;;;2.17;1.90;;;29.20;70.90;;;;;;4991444;28;20448;-81
2022/07/03 11:30:33;;;;;;;2.93;2.73;;;29.20;69.90;;;;;;4993031;28;20516;-81
2022/07/03 11:33:00;;;;;;;2.83;2.30;;;29.20;71.40;;;;;;5011964;28;20503;-82
2022/07/03 11:35:45;;;;;;;1.77;1.70;;;29.30;72.70;;;;;;4982362;28;20676;-82
2022/07/03 11:38:15;;;;;;;2.00;1.90;;;29.40;72.00;;;;;;5007599;28;20946;-82
2022/07/03 11:40:43;;;;;;;2.13;1.97;;;29.50;69.10;;;;;;4993688;28;20420;-80
2022/07/03 11:43:10;;;;;;;2.03;1.93;;;29.50;69.40;;;;;;4995251;28;20457;-81
2022/07/03 11:45:39;;;;;;;2.37;1.83;;;29.60;68.70;;;;;;4992959;28;20763;-82
2022/07/03 11:48:17;;;;;;;1.93;1.83;;;29.80;69.50;;;;;;4991279;28;20441;-82
2022/07/03 11:50:45;;;;;;;2.30;1.93;;;29.90;69.90;;;;;;4994046;28;20828;-82
2022/07/03 11:53:19;;;;;;;1.80;1.63;;;30.00;71.70;;;;;;4991502;28;20423;-82
2022/07/03 11:55:57;;;;;;;2.47;1.90;;;30.20;70.90;;;;;;4993597;28;20521;-82
2022/07/03 11:58:24;;;;;;;5.10;1.70;;;30.30;69.90;;;;;;4991462;28;20452;-82
2022/07/03 12:00:51;;;;;;;2.33;1.60;;;30.40;69.50;;;;;;5012441;28;20541;-82
2022/07/03 12:03:22;;;;;;;3.83;1.60;;;30.50;70.10;;;;;;4992262;28;20475;-81
2022/07/03 12:05:58;;;;;;;2.10;1.73;;;30.50;68.00;;;;;;4994697;28;21064;-82
2022/07/03 12:08:32;;;;;;;1.70;1.70;;;30.40;67.40;;;;;;4981667;28;20444;-82
2022/07/03 12:11:03;;;;;;;1.53;1.53;;;30.50;69.30;;;;;;4991332;28;20421;-83
2022/07/03 12:13:30;;;;;;;2.60;2.07;;;30.60;68.90;;;;;;4992391;28;20421;-82
2022/07/03 12:16:08;;;;;;;2.40;1.60;;;30.70;65.90;;;;;;4990875;28;20571;-81
2022/07/03 12:18:41;;;;;;;3.00;1.90;;;30.90;66.50;;;;;;4992452;28;20765;-83
2022/07/03 12:21:06;;;;;;;3.83;1.80;;;30.90;66.50;;;;;;4991074;28;21000;-83
2022/07/03 12:23:44;;;;;;;1.80;1.80;;;30.90;65.50;;;;;;4991780;28;20548;-82
2022/07/03 12:26:11;;;;;;;2.30;2.10;;;30.80;66.00;;;;;;4990866;28;20188;-82
2022/07/03 12:28:37;;;;;;;3.47;1.90;;;30.70;67.60;;;;;;4992553;28;20488;-82
2022/07/03 12:31:03;;;;;;;2.00;1.90;;;30.80;67.70;;;;;;4990558;28;20468;-82
2022/07/03 12:33:30;;;;;;;2.23;2.03;;;30.90;68.80;;;;;;4991527;28;20261;-82
2022/07/03 12:36:07;;;;;;;1.97;1.90;;;30.90;68.30;;;;;;4991241;28;20182;-82
2022/07/03 12:38:33;;;;;;;2.17;1.73;;;30.90;68.40;;;;;;4986625;28;20503;-83
2022/07/03 12:41:07;;;;;;;2.13;1.87;;;31.00;68.30;;;;;;4999473;28;20440;-82
2022/07/03 12:43:40;;;;;;;3.23;2.10;;;31.10;67.60;;;;;;4993035;28;20519;-82
2022/07/03 12:46:35;;;;;;;2.13;2.00;;;31.20;67.70;;;;;;4990446;28;20421;-82
2022/07/03 12:49:11;;;;;;;3.27;1.80;;;31.40;69.20;;;;;;4977838;28;20925;-82
2022/07/03 12:51:43;;;;;;;1.90;1.80;;;31.50;66.40;;;;;;4994637;28;21018;-82
2022/07/03 12:54:21;;;;;;;2.20;2.00;;;31.60;65.30;;;;;;4990219;28;20425;-82
2022/07/03 12:59:16;;;;;;;2.13;1.63;;;31.60;65.20;;;;;;4994399;28;20959;-83
2022/07/03 13:00:09;;;;;;;2.37;1.87;;;31.60;64.90;;;;;;4999503;28;20474;-83
2022/07/03 13:02:36;;;;;;;1.80;1.70;;;31.50;65.50;;;;;;4973404;28;20822;-83
2022/07/03 13:05:14;;;;;;;1.77;1.60;;;31.40;66.90;;;;;;4984338;28;20479;-82
2022/07/03 13:07:41;;;;;;;1.93;1.70;;;31.50;64.90;;;;;;4990089;28;20438;-82
2022/07/03 13:10:07;;;;;;;1.87;1.70;;;31.50;64.30;;;;;;4974319;28;20452;-82
2022/07/03 13:12:33;;;;;;;1.87;1.80;;;31.70;63.60;;;;;;4974817;28;20487;-83